Strona główna
METAR-TAF:

METAR-TAF

Lotnisko :

Troy, Michigan, Stany Zjednoczone

Szerokość geograficzna: 42-32-35N, Długość geograficzna: 083-10-40W, wysokość: 222 m

Aktualna obserwacja pogody

Raport powstał 12 minut temu, godzina 19:18 UTC
Wiatr 6 kt od zachodnio-południowy zachód
Temperatura 30°C
Wilgotność 55%
Ciśnienie 1013 hPa
Widzialność: 16.1 km
Rozproszone chmury na wysokości 3700 ft
Rozproszone chmury na wysokości 4600 ft

METAR: KVLL 181918Z AUTO 25006KT 10SM SCT037 SCT046 30/20 A2990 RMK AO2 T03040201

czas: 15:30 (19:30 UTC)


TAF: brakujący

Obserwacja i prognoza pogody dla ponad 4000 lotnisk (raport METAR i TAF).

Dostępne stacje oznaczono żółtymi i czerwonymi punktami na mapie.

Najedź kursorem aby zobaczyć nazwę stacji.

Kliknij aby zobaczyć obserwacje i prognozy pogody.

Aby zmienić mapę: kliknij na zielony przycisk z czarnym krzyżykiem, aby powiększyć; na zielony przycisk z myślnikiem, aby pomniejszyć; na zielone strzałki, aby przejść do map sąsiednich.


METAR-TAF: